sensor_id;sensor_type;location;lat;lon;timestamp;temperature;humidity
34873;DHT22;21084;51.098;14.506;2023-06-10T00:01:07;15.30;92.00
34873;DHT22;21084;51.098;14.506;2023-06-10T00:03:35;15.20;91.90
34873;DHT22;21084;51.098;14.506;2023-06-10T00:06:04;15.20;91.90
34873;DHT22;21084;51.098;14.506;2023-06-10T00:08:34;15.20;91.90
34873;DHT22;21084;51.098;14.506;2023-06-10T00:11:04;15.10;91.90
34873;DHT22;21084;51.098;14.506;2023-06-10T00:13:33;15.10;91.90
34873;DHT22;21084;51.098;14.506;2023-06-10T00:16:02;15.10;91.90
34873;DHT22;21084;51.098;14.506;2023-06-10T00:18:31;15.10;92.00
34873;DHT22;21084;51.098;14.506;2023-06-10T00:20:59;15.10;91.90
34873;DHT22;21084;51.098;14.506;2023-06-10T00:23:32;15.00;91.90
34873;DHT22;21084;51.098;14.506;2023-06-10T00:26:07;15.00;91.90
34873;DHT22;21084;51.098;14.506;2023-06-10T00:28:35;15.00;92.10
34873;DHT22;21084;51.098;14.506;2023-06-10T00:31:04;14.90;92.30
34873;DHT22;21084;51.098;14.506;2023-06-10T00:33:32;14.90;92.20
34873;DHT22;21084;51.098;14.506;2023-06-10T00:36:01;14.90;92.10
34873;DHT22;21084;51.098;14.506;2023-06-10T00:38:30;14.90;92.10
34873;DHT22;21084;51.098;14.506;2023-06-10T00:40:59;14.80;92.20
34873;DHT22;21084;51.098;14.506;2023-06-10T00:43:28;14.80;92.20
34873;DHT22;21084;51.098;14.506;2023-06-10T00:45:57;14.80;92.30
34873;DHT22;21084;51.098;14.506;2023-06-10T00:48:26;14.70;92.50
34873;DHT22;21084;51.098;14.506;2023-06-10T00:50:55;14.70;92.30
34873;DHT22;21084;51.098;14.506;2023-06-10T00:53:25;14.60;92.40
34873;DHT22;21084;51.098;14.506;2023-06-10T00:55:54;14.60;92.30
34873;DHT22;21084;51.098;14.506;2023-06-10T00:58:23;14.60;92.50
34873;DHT22;21084;51.098;14.506;2023-06-10T01:00:54;14.60;92.50
34873;DHT22;21084;51.098;14.506;2023-06-10T01:03:22;14.60;92.70
34873;DHT22;21084;51.098;14.506;2023-06-10T01:05:59;14.50;92.60
34873;DHT22;21084;51.098;14.506;2023-06-10T01:08:35;14.40;93.00
34873;DHT22;21084;51.098;14.506;2023-06-10T01:11:11;14.40;93.40
34873;DHT22;21084;51.098;14.506;2023-06-10T01:13:43;14.40;93.50
34873;DHT22;21084;51.098;14.506;2023-06-10T01:16:13;14.40;93.50
34873;DHT22;21084;51.098;14.506;2023-06-10T01:18:42;14.40;93.50
34873;DHT22;21084;51.098;14.506;2023-06-10T01:21:19;14.40;93.50
34873;DHT22;21084;51.098;14.506;2023-06-10T01:23:48;14.50;93.50
34873;DHT22;21084;51.098;14.506;2023-06-10T01:26:17;14.50;93.40
34873;DHT22;21084;51.098;14.506;2023-06-10T01:28:49;14.50;93.40
34873;DHT22;21084;51.098;14.506;2023-06-10T01:31:28;14.50;93.40
34873;DHT22;21084;51.098;14.506;2023-06-10T01:34:01;14.50;93.30
34873;DHT22;21084;51.098;14.506;2023-06-10T01:36:33;14.50;93.30
34873;DHT22;21084;51.098;14.506;2023-06-10T01:39:04;14.50;93.50
34873;DHT22;21084;51.098;14.506;2023-06-10T01:41:33;14.50;93.50
34873;DHT22;21084;51.098;14.506;2023-06-10T01:44:02;14.50;93.40
34873;DHT22;21084;51.098;14.506;2023-06-10T01:46:31;14.50;93.60
34873;DHT22;21084;51.098;14.506;2023-06-10T01:49:00;14.50;93.60
34873;DHT22;21084;51.098;14.506;2023-06-10T01:51:28;14.50;93.90
34873;DHT22;21084;51.098;14.506;2023-06-10T01:54:00;14.50;93.80
34873;DHT22;21084;51.098;14.506;2023-06-10T01:56:28;14.50;93.70
34873;DHT22;21084;51.098;14.506;2023-06-10T01:58:56;14.40;93.60
34873;DHT22;21084;51.098;14.506;2023-06-10T02:01:26;14.40;93.60
34873;DHT22;21084;51.098;14.506;2023-06-10T02:03:55;14.40;93.60
34873;DHT22;21084;51.098;14.506;2023-06-10T02:06:24;14.30;93.50
34873;DHT22;21084;51.098;14.506;2023-06-10T02:08:52;14.30;93.40
34873;DHT22;21084;51.098;14.506;2023-06-10T02:11:23;14.20;93.30
34873;DHT22;21084;51.098;14.506;2023-06-10T02:13:51;14.20;93.50
34873;DHT22;21084;51.098;14.506;2023-06-10T02:16:20;14.10;93.40
34873;DHT22;21084;51.098;14.506;2023-06-10T02:18:49;14.10;93.50
34873;DHT22;21084;51.098;14.506;2023-06-10T02:21:17;14.10;93.50
34873;DHT22;21084;51.098;14.506;2023-06-10T02:23:46;14.10;93.50
34873;DHT22;21084;51.098;14.506;2023-06-10T02:26:14;14.10;93.50
34873;DHT22;21084;51.098;14.506;2023-06-10T02:28:44;14.10;93.50
34873;DHT22;21084;51.098;14.506;2023-06-10T02:31:13;14.10;93.50
34873;DHT22;21084;51.098;14.506;2023-06-10T02:33:45;14.00;93.50
34873;DHT22;21084;51.098;14.506;2023-06-10T02:36:14;14.00;93.50
34873;DHT22;21084;51.098;14.506;2023-06-10T02:38:42;13.90;93.40
34873;DHT22;21084;51.098;14.506;2023-06-10T02:41:11;13.90;93.40
34873;DHT22;21084;51.098;14.506;2023-06-10T02:43:40;13.90;93.60
34873;DHT22;21084;51.098;14.506;2023-06-10T02:46:09;13.90;93.60
34873;DHT22;21084;51.098;14.506;2023-06-10T02:48:41;13.80;93.50
34873;DHT22;21084;51.098;14.506;2023-06-10T02:51:10;13.90;93.50
34873;DHT22;21084;51.098;14.506;2023-06-10T02:53:39;13.80;93.50
34873;DHT22;21084;51.098;14.506;2023-06-10T02:56:09;13.80;93.50
34873;DHT22;21084;51.098;14.506;2023-06-10T02:58:38;13.70;93.40
34873;DHT22;21084;51.098;14.506;2023-06-10T03:01:08;13.70;93.50
34873;DHT22;21084;51.098;14.506;2023-06-10T03:03:37;13.70;93.70
34873;DHT22;21084;51.098;14.506;2023-06-10T03:06:10;13.70;93.40
34873;DHT22;21084;51.098;14.506;2023-06-10T03:08:39;13.60;93.40
34873;DHT22;21084;51.098;14.506;2023-06-10T03:11:08;13.60;93.40
34873;DHT22;21084;51.098;14.506;2023-06-10T03:13:38;13.60;93.40
34873;DHT22;21084;51.098;14.506;2023-06-10T03:16:09;13.60;93.60
34873;DHT22;21084;51.098;14.506;2023-06-10T03:18:39;13.60;93.40
34873;DHT22;21084;51.098;14.506;2023-06-10T03:21:08;13.60;93.40
34873;DHT22;21084;51.098;14.506;2023-06-10T03:23:37;13.60;93.40
34873;DHT22;21084;51.098;14.506;2023-06-10T03:26:05;13.60;93.40
34873;DHT22;21084;51.098;14.506;2023-06-10T03:28:35;13.60;93.60
34873;DHT22;21084;51.098;14.506;2023-06-10T03:31:03;13.60;93.40
34873;DHT22;21084;51.098;14.506;2023-06-10T03:33:33;13.60;93.50
34873;DHT22;21084;51.098;14.506;2023-06-10T03:36:03;13.60;93.50
34873;DHT22;21084;51.098;14.506;2023-06-10T03:38:32;13.60;93.50
34873;DHT22;21084;51.098;14.506;2023-06-10T03:41:01;13.70;93.60
34873;DHT22;21084;51.098;14.506;2023-06-10T03:43:29;13.70;93.50
34873;DHT22;21084;51.098;14.506;2023-06-10T03:45:59;13.70;93.90
34873;DHT22;21084;51.098;14.506;2023-06-10T03:48:27;13.80;93.50
34873;DHT22;21084;51.098;14.506;2023-06-10T03:50:59;13.80;93.60
34873;DHT22;21084;51.098;14.506;2023-06-10T03:53:27;13.90;93.50
34873;DHT22;21084;51.098;14.506;2023-06-10T03:55:56;14.00;93.50
34873;DHT22;21084;51.098;14.506;2023-06-10T03:58:25;14.00;93.40
34873;DHT22;21084;51.098;14.506;2023-06-10T04:00:54;14.10;93.40
34873;DHT22;21084;51.098;14.506;2023-06-10T04:03:22;14.20;93.40
34873;DHT22;21084;51.098;14.506;2023-06-10T04:05:51;14.30;93.30
34873;DHT22;21084;51.098;14.506;2023-06-10T04:08:23;14.40;93.30
34873;DHT22;21084;51.098;14.506;2023-06-10T04:10:52;14.50;93.50
34873;DHT22;21084;51.098;14.506;2023-06-10T04:13:20;14.60;93.20
34873;DHT22;21084;51.098;14.506;2023-06-10T04:15:49;14.80;93.30
34873;DHT22;21084;51.098;14.506;2023-06-10T04:18:18;14.90;93.30
34873;DHT22;21084;51.098;14.506;2023-06-10T04:20:46;15.20;93.50
34873;DHT22;21084;51.098;14.506;2023-06-10T04:23:15;15.40;93.10
34873;DHT22;21084;51.098;14.506;2023-06-10T04:25:45;15.60;92.90
34873;DHT22;21084;51.098;14.506;2023-06-10T04:28:14;15.80;92.80
34873;DHT22;21084;51.098;14.506;2023-06-10T04:30:42;16.00;92.30
34873;DHT22;21084;51.098;14.506;2023-06-10T04:33:12;16.20;92.00
34873;DHT22;21084;51.098;14.506;2023-06-10T04:35:40;16.30;90.80
34873;DHT22;21084;51.098;14.506;2023-06-10T04:38:09;16.40;90.20
34873;DHT22;21084;51.098;14.506;2023-06-10T04:40:38;16.50;90.90
34873;DHT22;21084;51.098;14.506;2023-06-10T04:43:08;16.60;90.10
34873;DHT22;21084;51.098;14.506;2023-06-10T04:45:36;16.70;89.40
34873;DHT22;21084;51.098;14.506;2023-06-10T04:48:05;17.10;90.40
34873;DHT22;21084;51.098;14.506;2023-06-10T04:50:34;17.40;88.10
34873;DHT22;21084;51.098;14.506;2023-06-10T04:53:03;17.70;86.50
34873;DHT22;21084;51.098;14.506;2023-06-10T04:55:32;18.10;88.00
34873;DHT22;21084;51.098;14.506;2023-06-10T04:58:01;18.50;84.90
34873;DHT22;21084;51.098;14.506;2023-06-10T05:00:31;19.00;84.80
34873;DHT22;21084;51.098;14.506;2023-06-10T05:03:00;19.40;82.30
34873;DHT22;21084;51.098;14.506;2023-06-10T05:05:28;19.70;82.50
34873;DHT22;21084;51.098;14.506;2023-06-10T05:07:57;20.20;82.00
34873;DHT22;21084;51.098;14.506;2023-06-10T05:10:25;20.60;81.10
34873;DHT22;21084;51.098;14.506;2023-06-10T05:12:54;21.10;80.10
34873;DHT22;21084;51.098;14.506;2023-06-10T05:15:22;21.40;78.80
34873;DHT22;21084;51.098;14.506;2023-06-10T05:17:52;21.60;78.50
34873;DHT22;21084;51.098;14.506;2023-06-10T05:20:21;21.90;78.60
34873;DHT22;21084;51.098;14.506;2023-06-10T05:22:49;22.20;77.20
34873;DHT22;21084;51.098;14.506;2023-06-10T05:25:18;22.60;75.10
34873;DHT22;21084;51.098;14.506;2023-06-10T05:27:46;22.70;75.40
34873;DHT22;21084;51.098;14.506;2023-06-10T05:30:15;23.00;74.90
34873;DHT22;21084;51.098;14.506;2023-06-10T05:32:46;23.20;73.50
34873;DHT22;21084;51.098;14.506;2023-06-10T05:35:15;23.20;72.20
34873;DHT22;21084;51.098;14.506;2023-06-10T05:37:44;23.30;72.40
34873;DHT22;21084;51.098;14.506;2023-06-10T05:40:13;23.60;71.50
34873;DHT22;21084;51.098;14.506;2023-06-10T05:42:41;23.80;71.10
34873;DHT22;21084;51.098;14.506;2023-06-10T05:45:11;23.70;70.30
34873;DHT22;21084;51.098;14.506;2023-06-10T05:47:40;23.30;70.00
34873;DHT22;21084;51.098;14.506;2023-06-10T05:50:09;22.90;70.30
34873;DHT22;21084;51.098;14.506;2023-06-10T05:52:39;22.60;71.30
34873;DHT22;21084;51.098;14.506;2023-06-10T05:55:09;22.20;71.70
34873;DHT22;21084;51.098;14.506;2023-06-10T05:57:40;22.00;72.60
34873;DHT22;21084;51.098;14.506;2023-06-10T06:00:10;21.90;72.90
34873;DHT22;21084;51.098;14.506;2023-06-10T06:02:38;21.90;73.60
34873;DHT22;21084;51.098;14.506;2023-06-10T06:05:07;21.90;74.10
34873;DHT22;21084;51.098;14.506;2023-06-10T06:07:38;21.90;73.70
34873;DHT22;21084;51.098;14.506;2023-06-10T06:10:07;21.90;74.00
34873;DHT22;21084;51.098;14.506;2023-06-10T06:12:36;21.80;74.20
34873;DHT22;21084;51.098;14.506;2023-06-10T06:15:05;21.90;74.40
34873;DHT22;21084;51.098;14.506;2023-06-10T06:17:35;22.00;73.70
34873;DHT22;21084;51.098;14.506;2023-06-10T06:20:05;21.90;73.90
34873;DHT22;21084;51.098;14.506;2023-06-10T06:22:34;22.20;73.50
34873;DHT22;21084;51.098;14.506;2023-06-10T06:25:05;22.10;72.60
34873;DHT22;21084;51.098;14.506;2023-06-10T06:27:34;22.30;72.80
34873;DHT22;21084;51.098;14.506;2023-06-10T06:30:03;22.50;72.40
34873;DHT22;21084;51.098;14.506;2023-06-10T06:32:33;22.70;72.20
34873;DHT22;21084;51.098;14.506;2023-06-10T06:35:01;22.60;71.40
34873;DHT22;21084;51.098;14.506;2023-06-10T06:37:30;22.80;71.50
34873;DHT22;21084;51.098;14.506;2023-06-10T06:39:58;23.00;70.00
34873;DHT22;21084;51.098;14.506;2023-06-10T06:42:32;23.40;69.70
34873;DHT22;21084;51.098;14.506;2023-06-10T06:45:00;23.30;69.10
34873;DHT22;21084;51.098;14.506;2023-06-10T06:47:28;23.70;68.50
34873;DHT22;21084;51.098;14.506;2023-06-10T06:49:57;24.00;68.20
34873;DHT22;21084;51.098;14.506;2023-06-10T06:52:26;24.50;68.20
34873;DHT22;21084;51.098;14.506;2023-06-10T06:54:54;24.70;67.60
34873;DHT22;21084;51.098;14.506;2023-06-10T06:57:23;24.90;66.30
34873;DHT22;21084;51.098;14.506;2023-06-10T06:59:53;24.90;65.50
34873;DHT22;21084;51.098;14.506;2023-06-10T07:02:21;24.90;64.80
34873;DHT22;21084;51.098;14.506;2023-06-10T07:04:50;24.70;65.30
34873;DHT22;21084;51.098;14.506;2023-06-10T07:07:22;24.80;65.20
34873;DHT22;21084;51.098;14.506;2023-06-10T07:09:51;24.90;64.60
34873;DHT22;21084;51.098;14.506;2023-06-10T07:12:20;24.80;64.40
34873;DHT22;21084;51.098;14.506;2023-06-10T07:14:52;24.80;64.20
34873;DHT22;21084;51.098;14.506;2023-06-10T07:17:21;24.90;63.90
34873;DHT22;21084;51.098;14.506;2023-06-10T07:19:49;25.10;64.60
34873;DHT22;21084;51.098;14.506;2023-06-10T07:22:18;25.80;64.00
34873;DHT22;21084;51.098;14.506;2023-06-10T07:24:47;26.50;62.40
34873;DHT22;21084;51.098;14.506;2023-06-10T07:27:16;26.90;59.70
34873;DHT22;21084;51.098;14.506;2023-06-10T07:29:45;27.80;58.70
34873;DHT22;21084;51.098;14.506;2023-06-10T07:32:15;28.40;56.00
34873;DHT22;21084;51.098;14.506;2023-06-10T07:34:45;28.60;55.00
34873;DHT22;21084;51.098;14.506;2023-06-10T07:37:14;29.30;53.40
34873;DHT22;21084;51.098;14.506;2023-06-10T07:39:42;29.00;53.10
34873;DHT22;21084;51.098;14.506;2023-06-10T07:42:11;29.10;52.10
34873;DHT22;21084;51.098;14.506;2023-06-10T07:44:40;29.10;52.80
34873;DHT22;21084;51.098;14.506;2023-06-10T07:47:09;29.40;51.30
34873;DHT22;21084;51.098;14.506;2023-06-10T07:49:39;29.40;51.40
34873;DHT22;21084;51.098;14.506;2023-06-10T07:52:09;29.30;51.00
34873;DHT22;21084;51.098;14.506;2023-06-10T07:54:37;29.80;51.40
34873;DHT22;21084;51.098;14.506;2023-06-10T07:57:06;30.00;50.20
34873;DHT22;21084;51.098;14.506;2023-06-10T07:59:35;29.10;50.70
34873;DHT22;21084;51.098;14.506;2023-06-10T08:02:04;29.00;52.30
34873;DHT22;21084;51.098;14.506;2023-06-10T08:04:33;29.30;50.30
34873;DHT22;21084;51.098;14.506;2023-06-10T08:07:04;29.80;49.60
34873;DHT22;21084;51.098;14.506;2023-06-10T08:09:33;30.50;47.70
34873;DHT22;21084;51.098;14.506;2023-06-10T08:12:02;30.70;47.10
34873;DHT22;21084;51.098;14.506;2023-06-10T08:14:31;31.30;45.70
34873;DHT22;21084;51.098;14.506;2023-06-10T08:17:00;31.80;45.00
34873;DHT22;21084;51.098;14.506;2023-06-10T08:19:29;31.50;44.20
34873;DHT22;21084;51.098;14.506;2023-06-10T08:21:58;31.00;44.40
34873;DHT22;21084;51.098;14.506;2023-06-10T08:24:28;30.80;45.60
34873;DHT22;21084;51.098;14.506;2023-06-10T08:26:57;31.30;44.70
34873;DHT22;21084;51.098;14.506;2023-06-10T08:29:26;30.40;44.50
34873;DHT22;21084;51.098;14.506;2023-06-10T08:31:55;31.30;44.50
34873;DHT22;21084;51.098;14.506;2023-06-10T08:34:23;30.60;44.10
34873;DHT22;21084;51.098;14.506;2023-06-10T08:36:52;30.70;44.50
34873;DHT22;21084;51.098;14.506;2023-06-10T08:39:22;30.60;43.70
34873;DHT22;21084;51.098;14.506;2023-06-10T08:42:08;30.90;43.80
34873;DHT22;21084;51.098;14.506;2023-06-10T08:44:38;31.60;44.50
34873;DHT22;21084;51.098;14.506;2023-06-10T08:47:14;31.70;42.80
34873;DHT22;21084;51.098;14.506;2023-06-10T08:49:45;31.70;42.50
34873;DHT22;21084;51.098;14.506;2023-06-10T08:52:15;32.00;42.10
34873;DHT22;21084;51.098;14.506;2023-06-10T08:54:49;32.30;39.30
34873;DHT22;21084;51.098;14.506;2023-06-10T08:57:22;32.10;39.50
34873;DHT22;21084;51.098;14.506;2023-06-10T08:59:52;31.10;39.80
34873;DHT22;21084;51.098;14.506;2023-06-10T09:02:22;30.10;41.30
34873;DHT22;21084;51.098;14.506;2023-06-10T09:04:50;29.60;41.80
34873;DHT22;21084;51.098;14.506;2023-06-10T09:07:19;29.20;42.50
34873;DHT22;21084;51.098;14.506;2023-06-10T09:09:49;29.60;43.30
34873;DHT22;21084;51.098;14.506;2023-06-10T09:12:21;30.00;43.20
34873;DHT22;21084;51.098;14.506;2023-06-10T09:14:50;30.10;42.70
34873;DHT22;21084;51.098;14.506;2023-06-10T09:17:19;30.60;42.30
34873;DHT22;21084;51.098;14.506;2023-06-10T09:19:49;30.50;41.20
34873;DHT22;21084;51.098;14.506;2023-06-10T09:22:21;31.10;40.90
34873;DHT22;21084;51.098;14.506;2023-06-10T09:24:49;31.70;40.30
34873;DHT22;21084;51.098;14.506;2023-06-10T09:27:18;31.00;40.50
34873;DHT22;21084;51.098;14.506;2023-06-10T09:29:52;31.30;42.40
34873;DHT22;21084;51.098;14.506;2023-06-10T09:32:21;32.00;39.40
34873;DHT22;21084;51.098;14.506;2023-06-10T09:34:50;32.40;40.00
34873;DHT22;21084;51.098;14.506;2023-06-10T09:37:22;33.00;39.00
34873;DHT22;21084;51.098;14.506;2023-06-10T09:40:02;32.00;37.70
34873;DHT22;21084;51.098;14.506;2023-06-10T09:42:33;32.30;39.50
34873;DHT22;21084;51.098;14.506;2023-06-10T09:45:05;32.70;38.20
34873;DHT22;21084;51.098;14.506;2023-06-10T09:47:34;32.70;38.70
34873;DHT22;21084;51.098;14.506;2023-06-10T09:50:03;32.30;38.20
34873;DHT22;21084;51.098;14.506;2023-06-10T09:52:37;32.10;39.50
34873;DHT22;21084;51.098;14.506;2023-06-10T09:55:08;31.90;39.40
34873;DHT22;21084;51.098;14.506;2023-06-10T09:57:38;32.00;38.60
34873;DHT22;21084;51.098;14.506;2023-06-10T10:00:11;32.00;39.20
34873;DHT22;21084;51.098;14.506;2023-06-10T10:02:45;31.60;39.70
34873;DHT22;21084;51.098;14.506;2023-06-10T10:05:17;31.90;40.40
34873;DHT22;21084;51.098;14.506;2023-06-10T10:07:46;31.80;39.70
34873;DHT22;21084;51.098;14.506;2023-06-10T10:10:19;30.70;40.90
34873;DHT22;21084;51.098;14.506;2023-06-10T10:12:51;30.00;42.90
34873;DHT22;21084;51.098;14.506;2023-06-10T10:15:24;29.70;43.60
34873;DHT22;21084;51.098;14.506;2023-06-10T10:18:06;30.30;44.00
34873;DHT22;21084;51.098;14.506;2023-06-10T10:20:45;32.00;41.50
34873;DHT22;21084;51.098;14.506;2023-06-10T10:23:25;33.10;40.40
34873;DHT22;21084;51.098;14.506;2023-06-10T10:25:55;33.60;39.30
34873;DHT22;21084;51.098;14.506;2023-06-10T10:28:33;32.60;38.50
34873;DHT22;21084;51.098;14.506;2023-06-10T10:31:08;32.10;40.50
34873;DHT22;21084;51.098;14.506;2023-06-10T10:33:48;32.20;39.70
34873;DHT22;21084;51.098;14.506;2023-06-10T10:36:17;32.40;40.10
34873;DHT22;21084;51.098;14.506;2023-06-10T10:38:48;32.70;39.20
34873;DHT22;21084;51.098;14.506;2023-06-10T10:41:19;32.70;38.70
34873;DHT22;21084;51.098;14.506;2023-06-10T10:43:49;32.40;40.00
34873;DHT22;21084;51.098;14.506;2023-06-10T10:46:20;32.60;39.70
34873;DHT22;21084;51.098;14.506;2023-06-10T10:48:53;32.10;39.20
34873;DHT22;21084;51.098;14.506;2023-06-10T10:51:23;31.10;40.60
34873;DHT22;21084;51.098;14.506;2023-06-10T10:54:11;30.90;42.40
34873;DHT22;21084;51.098;14.506;2023-06-10T10:57:12;31.50;42.90
34873;DHT22;21084;51.098;14.506;2023-06-10T10:59:55;32.20;40.70
34873;DHT22;21084;51.098;14.506;2023-06-10T11:02:50;32.50;40.60
34873;DHT22;21084;51.098;14.506;2023-06-10T11:05:32;33.10;40.40
34873;DHT22;21084;51.098;14.506;2023-06-10T11:08:03;33.70;39.10
34873;DHT22;21084;51.098;14.506;2023-06-10T11:10:33;31.90;40.20
34873;DHT22;21084;51.098;14.506;2023-06-10T11:13:06;31.10;42.20
34873;DHT22;21084;51.098;14.506;2023-06-10T11:15:39;30.80;43.60
34873;DHT22;21084;51.098;14.506;2023-06-10T11:18:15;30.30;44.10
34873;DHT22;21084;51.098;14.506;2023-06-10T11:20:57;29.60;44.50
34873;DHT22;21084;51.098;14.506;2023-06-10T11:23:41;30.20;44.60
34873;DHT22;21084;51.098;14.506;2023-06-10T11:26:12;30.80;42.80
34873;DHT22;21084;51.098;14.506;2023-06-10T11:28:42;30.90;42.50
34873;DHT22;21084;51.098;14.506;2023-06-10T11:31:30;31.60;42.10
34873;DHT22;21084;51.098;14.506;2023-06-10T11:34:01;32.40;40.90
34873;DHT22;21084;51.098;14.506;2023-06-10T11:36:33;32.80;39.70
34873;DHT22;21084;51.098;14.506;2023-06-10T11:39:03;32.70;40.60
34873;DHT22;21084;51.098;14.506;2023-06-10T11:41:34;33.40;39.00
34873;DHT22;21084;51.098;14.506;2023-06-10T11:44:03;34.60;37.80
34873;DHT22;21084;51.098;14.506;2023-06-10T11:46:33;34.70;37.90
34873;DHT22;21084;51.098;14.506;2023-06-10T11:49:05;33.50;37.30
34873;DHT22;21084;51.098;14.506;2023-06-10T11:51:35;34.40;37.80
34873;DHT22;21084;51.098;14.506;2023-06-10T11:54:04;33.80;35.10
34873;DHT22;21084;51.098;14.506;2023-06-10T11:56:33;34.00;35.90
34873;DHT22;21084;51.098;14.506;2023-06-10T11:59:04;34.00;35.00
34873;DHT22;21084;51.098;14.506;2023-06-10T12:01:36;33.20;35.10
34873;DHT22;21084;51.098;14.506;2023-06-10T12:04:12;33.10;35.90
34873;DHT22;21084;51.098;14.506;2023-06-10T12:06:42;33.30;35.70
34873;DHT22;21084;51.098;14.506;2023-06-10T12:09:19;33.40;35.30
34873;DHT22;21084;51.098;14.506;2023-06-10T12:11:56;33.20;34.90
34873;DHT22;21084;51.098;14.506;2023-06-10T12:14:52;34.10;35.20
34873;DHT22;21084;51.098;14.506;2023-06-10T12:17:36;33.80;34.70
34873;DHT22;21084;51.098;14.506;2023-06-10T12:20:09;33.40;36.20
34873;DHT22;21084;51.098;14.506;2023-06-10T12:22:40;33.60;33.70
34873;DHT22;21084;51.098;14.506;2023-06-10T12:25:10;33.70;32.00
34873;DHT22;21084;51.098;14.506;2023-06-10T12:27:49;33.20;32.80
34873;DHT22;21084;51.098;14.506;2023-06-10T12:30:19;33.50;32.70
34873;DHT22;21084;51.098;14.506;2023-06-10T12:32:49;34.60;32.00
34873;DHT22;21084;51.098;14.506;2023-06-10T12:35:20;34.80;31.00
34873;DHT22;21084;51.098;14.506;2023-06-10T12:37:56;34.80;31.10
34873;DHT22;21084;51.098;14.506;2023-06-10T12:40:28;34.70;31.90
34873;DHT22;21084;51.098;14.506;2023-06-10T12:42:59;35.60;32.40
34873;DHT22;21084;51.098;14.506;2023-06-10T12:45:28;35.30;31.60
34873;DHT22;21084;51.098;14.506;2023-06-10T12:48:08;34.60;31.80
34873;DHT22;21084;51.098;14.506;2023-06-10T12:50:40;33.50;32.60
34873;DHT22;21084;51.098;14.506;2023-06-10T12:53:09;33.40;34.60
34873;DHT22;21084;51.098;14.506;2023-06-10T12:55:39;34.30;34.30
34873;DHT22;21084;51.098;14.506;2023-06-10T12:58:07;33.90;32.80
34873;DHT22;21084;51.098;14.506;2023-06-10T13:00:36;33.60;33.00
34873;DHT22;21084;51.098;14.506;2023-06-10T13:03:05;33.50;32.00
34873;DHT22;21084;51.098;14.506;2023-06-10T13:05:35;32.30;34.50
34873;DHT22;21084;51.098;14.506;2023-06-10T13:08:06;32.40;35.40
34873;DHT22;21084;51.098;14.506;2023-06-10T13:10:37;33.20;34.00
34873;DHT22;21084;51.098;14.506;2023-06-10T13:13:07;32.50;33.40
34873;DHT22;21084;51.098;14.506;2023-06-10T13:15:37;32.30;34.20
34873;DHT22;21084;51.098;14.506;2023-06-10T13:18:10;33.20;35.30
34873;DHT22;21084;51.098;14.506;2023-06-10T13:20:39;32.70;34.10
34873;DHT22;21084;51.098;14.506;2023-06-10T13:23:09;32.00;35.60
34873;DHT22;21084;51.098;14.506;2023-06-10T13:25:37;31.50;35.20
34873;DHT22;21084;51.098;14.506;2023-06-10T13:28:08;31.30;37.10
34873;DHT22;21084;51.098;14.506;2023-06-10T13:30:36;30.30;37.10
34873;DHT22;21084;51.098;14.506;2023-06-10T13:33:05;30.30;38.30
34873;DHT22;21084;51.098;14.506;2023-06-10T13:35:34;29.90;39.30
34873;DHT22;21084;51.098;14.506;2023-06-10T13:38:02;30.30;39.40
34873;DHT22;21084;51.098;14.506;2023-06-10T13:40:33;30.30;39.10
34873;DHT22;21084;51.098;14.506;2023-06-10T13:43:01;30.80;39.40
34873;DHT22;21084;51.098;14.506;2023-06-10T13:45:30;31.30;38.90
34873;DHT22;21084;51.098;14.506;2023-06-10T13:47:59;31.40;39.40
34873;DHT22;21084;51.098;14.506;2023-06-10T13:50:28;31.60;37.70
34873;DHT22;21084;51.098;14.506;2023-06-10T13:52:57;31.80;36.90
34873;DHT22;21084;51.098;14.506;2023-06-10T13:55:28;31.60;35.70
34873;DHT22;21084;51.098;14.506;2023-06-10T13:57:58;31.30;36.20
34873;DHT22;21084;51.098;14.506;2023-06-10T14:00:28;31.20;36.60
34873;DHT22;21084;51.098;14.506;2023-06-10T14:02:57;31.90;37.60
34873;DHT22;21084;51.098;14.506;2023-06-10T14:05:26;32.20;36.60
34873;DHT22;21084;51.098;14.506;2023-06-10T14:07:58;33.20;35.50
34873;DHT22;21084;51.098;14.506;2023-06-10T14:10:27;33.70;35.80
34873;DHT22;21084;51.098;14.506;2023-06-10T14:12:57;34.80;35.60
34873;DHT22;21084;51.098;14.506;2023-06-10T14:15:27;35.00;33.00
34873;DHT22;21084;51.098;14.506;2023-06-10T14:17:58;35.40;32.20
34873;DHT22;21084;51.098;14.506;2023-06-10T14:20:26;35.40;31.30
34873;DHT22;21084;51.098;14.506;2023-06-10T14:22:58;35.70;31.70
34873;DHT22;21084;51.098;14.506;2023-06-10T14:25:27;36.30;31.50
34873;DHT22;21084;51.098;14.506;2023-06-10T14:27:55;36.00;30.80
34873;DHT22;21084;51.098;14.506;2023-06-10T14:30:26;35.70;31.90
34873;DHT22;21084;51.098;14.506;2023-06-10T14:32:54;34.80;33.10
34873;DHT22;21084;51.098;14.506;2023-06-10T14:35:23;33.30;37.00
34873;DHT22;21084;51.098;14.506;2023-06-10T14:37:51;32.20;38.90
34873;DHT22;21084;51.098;14.506;2023-06-10T14:40:20;30.80;37.10
34873;DHT22;21084;51.098;14.506;2023-06-10T14:42:51;30.20;37.70
34873;DHT22;21084;51.098;14.506;2023-06-10T14:45:20;29.30;38.50
34873;DHT22;21084;51.098;14.506;2023-06-10T14:47:50;28.70;38.60
34873;DHT22;21084;51.098;14.506;2023-06-10T14:50:19;28.20;38.90
34873;DHT22;21084;51.098;14.506;2023-06-10T14:52:48;27.50;40.40
34873;DHT22;21084;51.098;14.506;2023-06-10T14:55:16;27.10;40.90
34873;DHT22;21084;51.098;14.506;2023-06-10T14:57:45;27.00;40.80
34873;DHT22;21084;51.098;14.506;2023-06-10T15:00:15;27.30;41.30
34873;DHT22;21084;51.098;14.506;2023-06-10T15:02:47;27.30;39.50
34873;DHT22;21084;51.098;14.506;2023-06-10T15:05:18;27.30;37.90
34873;DHT22;21084;51.098;14.506;2023-06-10T15:07:47;26.90;37.60
34873;DHT22;21084;51.098;14.506;2023-06-10T15:10:16;26.90;39.40
34873;DHT22;21084;51.098;14.506;2023-06-10T15:12:48;26.80;39.80
34873;DHT22;21084;51.098;14.506;2023-06-10T15:15:24;26.80;40.70
34873;DHT22;21084;51.098;14.506;2023-06-10T15:17:53;27.00;41.50
34873;DHT22;21084;51.098;14.506;2023-06-10T15:20:24;27.20;40.90
34873;DHT22;21084;51.098;14.506;2023-06-10T15:22:52;27.20;41.50
34873;DHT22;21084;51.098;14.506;2023-06-10T15:25:22;27.10;41.90
34873;DHT22;21084;51.098;14.506;2023-06-10T15:27:58;27.20;42.90
34873;DHT22;21084;51.098;14.506;2023-06-10T15:30:26;27.40;42.90
34873;DHT22;21084;51.098;14.506;2023-06-10T15:32:55;27.60;43.10
34873;DHT22;21084;51.098;14.506;2023-06-10T15:35:26;27.80;43.40